createdAt,value
2018-03-26T00:00:01.692Z,99.90
2018-03-26T00:02:30.420Z,99.90
2018-03-26T00:05:00.456Z,99.90
2018-03-26T00:07:29.274Z,99.90
2018-03-26T00:09:57.584Z,99.90
2018-03-26T00:12:26.879Z,99.90
2018-03-26T00:14:55.214Z,99.90
2018-03-26T00:17:23.692Z,99.90
2018-03-26T00:19:52.419Z,99.90
2018-03-26T00:22:20.729Z,99.90
2018-03-26T00:24:49.080Z,99.90
2018-03-26T00:27:18.071Z,99.90
2018-03-26T00:29:46.387Z,99.90
2018-03-26T00:32:14.834Z,99.90
2018-03-26T00:34:43.626Z,99.90
2018-03-26T00:37:12.319Z,99.90
2018-03-26T00:39:40.927Z,99.90
2018-03-26T00:42:09.746Z,99.90
2018-03-26T00:44:38.703Z,99.90
2018-03-26T00:47:07.220Z,99.90
2018-03-26T00:49:35.880Z,99.90
2018-03-26T00:52:04.199Z,99.90
2018-03-26T00:54:32.532Z,99.90
2018-03-26T00:57:02.432Z,99.90
2018-03-26T00:59:30.891Z,99.90
2018-03-26T01:01:59.204Z,99.90
2018-03-26T01:04:27.560Z,99.90
2018-03-26T01:06:55.876Z,99.90
2018-03-26T01:09:24.244Z,99.90
2018-03-26T01:11:52.594Z,99.90
2018-03-26T01:14:21.664Z,99.90
2018-03-26T01:16:50.040Z,99.90
2018-03-26T01:19:18.944Z,99.90
2018-03-26T01:21:48.759Z,99.90
2018-03-26T01:24:17.112Z,99.90
2018-03-26T01:26:45.434Z,99.90
2018-03-26T01:29:14.338Z,99.90
2018-03-26T01:31:43.580Z,99.90
2018-03-26T01:34:12.712Z,99.90
2018-03-26T01:36:41.628Z,99.90
2018-03-26T01:39:10.036Z,99.90
2018-03-26T01:41:39.762Z,99.90
2018-03-26T01:44:08.172Z,99.90
2018-03-26T01:46:37.259Z,99.90
2018-03-26T01:49:05.572Z,99.90
2018-03-26T01:51:34.571Z,99.90
2018-03-26T01:54:02.943Z,99.90
2018-03-26T01:56:31.595Z,99.90
2018-03-26T01:58:59.956Z,99.90
2018-03-26T02:01:30.151Z,99.90
2018-03-26T02:03:58.692Z,99.90
2018-03-26T02:06:28.488Z,99.90
2018-03-26T02:08:56.876Z,99.90
2018-03-26T02:11:25.209Z,99.90
2018-03-26T02:13:54.065Z,99.90
2018-03-26T02:16:23.125Z,99.90
2018-03-26T02:18:51.993Z,99.90
2018-03-26T02:21:20.321Z,99.90
2018-03-26T02:23:48.755Z,99.90
2018-03-26T02:26:17.862Z,99.90
2018-03-26T02:28:47.096Z,99.90
2018-03-26T02:31:15.475Z,99.90
2018-03-26T02:33:44.397Z,99.90
2018-03-26T02:36:12.805Z,99.90
2018-03-26T02:38:41.337Z,99.90
2018-03-26T02:41:10.320Z,99.90
2018-03-26T02:43:39.468Z,99.90
2018-03-26T02:46:07.821Z,99.90
2018-03-26T02:48:38.255Z,99.90
2018-03-26T02:51:06.680Z,99.90
2018-03-26T02:53:35.025Z,99.90
2018-03-26T02:56:03.985Z,99.90
2018-03-26T02:58:33.032Z,99.90
2018-03-26T03:01:01.356Z,99.90
2018-03-26T03:03:29.683Z,99.90
2018-03-26T03:05:57.861Z,99.90
2018-03-26T03:08:26.540Z,99.90
2018-03-26T03:10:54.852Z,99.90
2018-03-26T03:13:23.195Z,99.90
2018-03-26T03:15:51.945Z,99.90
2018-03-26T03:18:20.507Z,99.90
2018-03-26T03:20:48.815Z,99.90
2018-03-26T03:23:17.673Z,99.90
2018-03-26T03:25:46.028Z,99.90
2018-03-26T03:28:14.346Z,99.90
2018-03-26T03:30:42.701Z,99.90
2018-03-26T03:33:12.370Z,99.90
2018-03-26T03:35:40.687Z,99.90
2018-03-26T03:38:09.657Z,99.90
2018-03-26T03:40:37.990Z,99.90
2018-03-26T03:43:06.296Z,99.90
2018-03-26T03:45:34.648Z,99.90
2018-03-26T03:48:02.960Z,99.90
2018-03-26T03:50:31.312Z,99.90
2018-03-26T03:53:00.218Z,99.90
2018-03-26T03:55:28.556Z,99.90
2018-03-26T03:57:56.895Z,99.90
2018-03-26T04:00:25.707Z,99.90
2018-03-26T04:02:54.136Z,99.90
2018-03-26T04:05:22.452Z,99.90
2018-03-26T04:07:50.824Z,99.90
2018-03-26T04:10:19.160Z,99.90
2018-03-26T04:12:47.463Z,99.90
2018-03-26T04:15:15.804Z,99.90
2018-03-26T04:17:44.111Z,99.90
2018-03-26T04:20:12.942Z,99.90
2018-03-26T04:22:41.229Z,99.90
2018-03-26T04:25:10.900Z,99.90
2018-03-26T04:27:40.327Z,99.90
2018-03-26T04:30:08.932Z,99.90
2018-03-26T04:32:37.244Z,99.90
2018-03-26T04:35:06.072Z,99.90
2018-03-26T04:37:34.504Z,99.90
2018-03-26T04:40:02.825Z,99.90
2018-03-26T04:42:31.420Z,99.90
2018-03-26T04:44:59.736Z,99.90
2018-03-26T04:47:28.048Z,99.90
2018-03-26T04:49:57.079Z,99.90
2018-03-26T04:52:25.380Z,99.90
2018-03-26T04:54:55.256Z,99.90
2018-03-26T04:57:24.337Z,99.90
2018-03-26T04:59:53.435Z,99.90
2018-03-26T05:02:22.391Z,99.90
2018-03-26T05:04:50.825Z,99.90
2018-03-26T05:07:19.134Z,99.90
2018-03-26T05:09:47.447Z,99.90
2018-03-26T05:12:16.520Z,99.90
2018-03-26T05:14:46.069Z,99.90
2018-03-26T05:17:14.679Z,99.90
2018-03-26T05:19:43.945Z,99.90
2018-03-26T05:22:12.696Z,99.90
2018-03-26T05:24:41.095Z,99.90
2018-03-26T05:27:09.287Z,99.90
2018-03-26T05:29:37.648Z,99.90
2018-03-26T05:32:07.617Z,99.90
2018-03-26T05:34:35.957Z,99.90
2018-03-26T05:37:04.814Z,99.90
2018-03-26T05:39:33.184Z,99.90
2018-03-26T05:42:02.344Z,99.90
2018-03-26T05:44:30.661Z,99.90
2018-03-26T05:46:59.524Z,99.90
2018-03-26T05:49:27.828Z,99.90
2018-03-26T05:51:56.134Z,99.90
2018-03-26T05:54:25.175Z,99.90
2018-03-26T05:56:53.628Z,99.90
2018-03-26T05:59:22.566Z,99.90
2018-03-26T06:01:50.963Z,99.90
2018-03-26T06:04:19.992Z,99.90
2018-03-26T06:06:49.847Z,99.90
2018-03-26T06:09:18.192Z,99.90
2018-03-26T06:11:46.648Z,99.90
2018-03-26T06:14:15.029Z,99.90
2018-03-26T06:17:00.919Z,99.90
2018-03-26T06:19:30.453Z,99.90
2018-03-26T06:21:58.776Z,99.90
2018-03-26T06:24:27.515Z,99.90
2018-03-26T06:26:55.955Z,99.90
2018-03-26T06:29:24.040Z,99.90
2018-03-26T06:31:52.352Z,99.90
2018-03-26T06:34:21.971Z,99.90
2018-03-26T06:50:17.620Z,99.90
2018-03-26T06:52:46.857Z,99.90
2018-03-26T06:55:15.948Z,99.90
2018-03-26T06:57:44.357Z,99.90
2018-03-26T07:00:12.724Z,99.90
2018-03-26T07:02:41.061Z,99.90
2018-03-26T07:05:09.812Z,99.90
2018-03-26T07:07:38.604Z,99.90
2018-03-26T07:10:08.313Z,99.90
2018-03-26T07:12:36.635Z,99.90
2018-03-26T07:15:05.533Z,99.90
2018-03-26T07:17:34.216Z,99.90
2018-03-26T07:20:03.716Z,99.90
2018-03-26T07:22:33.012Z,99.90
2018-03-26T07:25:02.127Z,99.90
2018-03-26T07:27:30.451Z,99.90
2018-03-26T07:29:59.607Z,99.90
2018-03-26T07:32:27.969Z,99.90
2018-03-26T07:34:57.066Z,99.90
2018-03-26T07:37:25.466Z,99.90
2018-03-26T07:39:54.608Z,99.90
2018-03-26T07:42:22.952Z,99.90
2018-03-26T07:44:52.032Z,99.90
2018-03-26T07:47:21.180Z,99.90
2018-03-26T07:49:49.505Z,99.90
2018-03-26T07:52:17.826Z,99.90
2018-03-26T07:54:46.205Z,99.90
2018-03-26T07:57:14.515Z,99.90
2018-03-26T07:59:43.318Z,99.90
2018-03-26T08:02:11.874Z,99.90
2018-03-26T08:04:40.431Z,99.90
2018-03-26T08:07:09.519Z,99.90
2018-03-26T08:09:37.635Z,99.90
2018-03-26T08:12:06.347Z,99.90
2018-03-26T08:14:34.655Z,99.90
2018-03-26T08:17:03.697Z,99.90
2018-03-26T08:19:32.396Z,99.90
2018-03-26T08:22:02.824Z,99.90
2018-03-26T08:24:31.168Z,99.90
2018-03-26T08:26:59.580Z,99.90
2018-03-26T08:29:27.928Z,99.90
2018-03-26T08:31:56.952Z,99.90
2018-03-26T08:34:25.283Z,99.90
2018-03-26T08:36:54.172Z,99.90
2018-03-26T08:39:22.528Z,99.90
2018-03-26T08:41:50.831Z,99.90
2018-03-26T08:44:19.164Z,99.90
2018-03-26T08:46:47.820Z,99.90
2018-03-26T08:49:16.199Z,99.90
2018-03-26T08:51:45.525Z,99.90
2018-03-26T08:54:14.115Z,99.90
2018-03-26T08:56:42.433Z,99.90
2018-03-26T08:59:10.895Z,99.90
2018-03-26T09:01:40.463Z,99.90
2018-03-26T09:04:09.025Z,99.90
2018-03-26T09:06:37.372Z,99.90
2018-03-26T09:09:05.701Z,99.90
2018-03-26T09:11:34.420Z,99.90
2018-03-26T09:14:02.841Z,99.90
2018-03-26T09:16:31.564Z,99.90
2018-03-26T09:18:59.961Z,99.90
2018-03-26T09:21:29.829Z,99.90
2018-03-26T09:23:59.252Z,99.90
2018-03-26T09:26:27.594Z,99.90
2018-03-26T09:28:55.962Z,99.90
2018-03-26T09:31:25.136Z,99.90
2018-03-26T09:33:54.062Z,99.90
2018-03-26T09:36:22.468Z,99.90
2018-03-26T09:38:50.873Z,99.90
2018-03-26T09:41:19.230Z,99.60
2018-03-26T09:43:47.882Z,99.00
2018-03-26T09:46:16.401Z,98.70
2018-03-26T09:48:44.721Z,98.50
2018-03-26T09:51:13.057Z,98.60
2018-03-26T09:53:41.402Z,97.50
2018-03-26T09:56:10.612Z,97.60
2018-03-26T09:58:38.971Z,95.10
2018-03-26T10:01:24.375Z,91.40
2018-03-26T10:03:53.778Z,86.70
2018-03-26T10:06:22.230Z,78.20
2018-03-26T10:08:50.551Z,75.20
2018-03-26T10:11:18.956Z,74.00
2018-03-26T10:13:47.276Z,83.20
2018-03-26T10:16:15.587Z,85.10
2018-03-26T10:18:44.644Z,86.00
2018-03-26T10:21:16.964Z,87.50
2018-03-26T10:23:46.793Z,89.20
2018-03-26T10:26:15.192Z,85.30
2018-03-26T10:28:43.673Z,85.10
2018-03-26T10:31:12.007Z,81.40
2018-03-26T10:33:40.432Z,82.40
2018-03-26T10:36:08.801Z,88.30
2018-03-26T10:38:38.153Z,86.80
2018-03-26T10:41:06.468Z,86.90
2018-03-26T10:43:34.838Z,86.50
2018-03-26T10:46:03.663Z,83.70
2018-03-26T10:48:32.396Z,82.00
2018-03-26T10:51:00.841Z,80.50
2018-03-26T10:53:29.798Z,82.10
2018-03-26T10:56:00.404Z,83.40
2018-03-26T10:58:28.817Z,84.20
2018-03-26T11:00:57.440Z,83.40
2018-03-26T11:03:26.828Z,82.50
2018-03-26T11:05:55.460Z,80.60
2018-03-26T11:08:23.767Z,84.30
2018-03-26T11:10:52.816Z,84.70
2018-03-26T11:13:22.076Z,83.30
2018-03-26T11:15:50.684Z,87.50
2018-03-26T11:18:19.029Z,92.80
2018-03-26T11:20:47.492Z,93.80
2018-03-26T11:23:15.831Z,95.00
2018-03-26T11:25:44.156Z,98.10
2018-03-26T11:28:13.295Z,99.90
2018-03-26T11:30:42.996Z,99.90
2018-03-26T11:33:11.525Z,99.90
2018-03-26T11:35:39.902Z,99.00
2018-03-26T11:38:08.333Z,98.90
2018-03-26T11:40:36.893Z,99.90
2018-03-26T11:43:05.332Z,99.80
2018-03-26T11:45:33.672Z,99.50
2018-03-26T11:48:02.055Z,99.70
2018-03-26T11:50:30.900Z,99.90
2018-03-26T11:52:59.216Z,99.30
2018-03-26T11:55:27.523Z,99.10
2018-03-26T11:57:55.909Z,98.20
2018-03-26T12:00:24.241Z,97.50
2018-03-26T12:02:52.599Z,98.30
2018-03-26T12:05:21.705Z,99.80
2018-03-26T12:07:50.840Z,99.90
2018-03-26T12:10:19.324Z,99.90
2018-03-26T12:12:47.910Z,99.90
2018-03-26T12:15:16.228Z,99.90
2018-03-26T12:17:44.716Z,99.20
2018-03-26T12:20:30.754Z,99.90
2018-03-26T12:22:59.129Z,98.60
2018-03-26T12:25:27.536Z,99.10
2018-03-26T12:28:13.484Z,99.10
2018-03-26T12:30:42.117Z,99.30
2018-03-26T12:33:11.133Z,98.20
2018-03-26T12:36:00.093Z,98.90
2018-03-26T12:38:28.471Z,96.60
2018-03-26T12:40:57.952Z,97.50
2018-03-26T12:43:27.233Z,96.60
2018-03-26T12:46:13.292Z,97.50
2018-03-26T12:48:42.101Z,98.60
2018-03-26T12:51:28.991Z,97.70
2018-03-26T12:53:57.495Z,97.80
2018-03-26T12:56:25.811Z,97.40
2018-03-26T12:58:56.284Z,96.90
2018-03-26T13:01:44.420Z,96.70
2018-03-26T13:04:14.046Z,96.80
2018-03-26T13:06:42.802Z,97.50
2018-03-26T13:09:11.940Z,94.40
2018-03-26T13:11:40.706Z,94.40
2018-03-26T13:14:09.033Z,92.70
2018-03-26T13:16:38.321Z,93.80
2018-03-26T13:19:06.986Z,93.00
2018-03-26T13:21:35.396Z,92.50
2018-03-26T13:24:04.756Z,92.20
2018-03-26T13:26:33.087Z,91.10
2018-03-26T13:29:01.521Z,90.00
2018-03-26T13:31:29.908Z,87.80
2018-03-26T13:33:58.477Z,89.30
2018-03-26T13:36:27.148Z,90.70
2018-03-26T13:38:56.167Z,91.80
2018-03-26T13:41:24.507Z,92.00
2018-03-26T13:43:52.973Z,93.60
2018-03-26T13:46:21.891Z,95.40
2018-03-26T13:48:50.222Z,94.40
2018-03-26T13:51:20.197Z,95.80
2018-03-26T13:53:49.076Z,96.90
2018-03-26T13:56:18.148Z,97.70
2018-03-26T13:58:46.534Z,98.90
2018-03-26T14:01:16.344Z,99.90
2018-03-26T14:07:16.157Z,99.90
2018-03-26T14:10:02.231Z,99.90
2018-03-26T14:12:48.175Z,99.90
2018-03-26T14:15:35.740Z,99.90
2018-03-26T14:18:04.048Z,99.90
2018-03-26T14:20:33.183Z,99.90
2018-03-26T14:23:01.528Z,99.90
2018-03-26T14:25:30.540Z,99.90
2018-03-26T14:28:00.476Z,99.90
2018-03-26T14:30:29.405Z,99.90
2018-03-26T14:32:57.720Z,99.90
2018-03-26T14:48:53.004Z,99.90
2018-03-26T14:51:21.519Z,99.90
2018-03-26T14:53:50.224Z,99.90
2018-03-26T14:56:19.421Z,99.90
2018-03-26T14:58:47.012Z,99.90
2018-03-26T15:01:15.276Z,99.90
2018-03-26T15:03:43.616Z,99.90
2018-03-26T15:06:12.356Z,99.90
2018-03-26T15:08:41.523Z,99.90
2018-03-26T15:11:09.876Z,99.90
2018-03-26T15:13:38.489Z,99.90
2018-03-26T15:16:07.201Z,99.90
2018-03-26T15:18:35.632Z,99.90
2018-03-26T15:21:04.000Z,99.90
2018-03-26T15:23:32.329Z,99.90
2018-03-26T15:26:02.672Z,99.90
2018-03-26T15:28:31.103Z,99.90
2018-03-26T15:31:00.133Z,99.90
2018-03-26T15:33:29.377Z,99.90
2018-03-26T15:35:59.007Z,99.90
2018-03-26T15:38:28.918Z,99.90
2018-03-26T15:40:57.485Z,99.90
2018-03-26T15:43:26.565Z,99.90
2018-03-26T15:45:55.660Z,99.90
2018-03-26T15:48:24.545Z,99.90
2018-03-26T15:50:52.880Z,99.90
2018-03-26T15:53:21.255Z,99.90
2018-03-26T15:55:50.449Z,99.90
2018-03-26T15:58:19.552Z,99.90
2018-03-26T16:00:47.939Z,99.90
2018-03-26T16:03:22.899Z,99.90
2018-03-26T16:05:51.332Z,99.90
2018-03-26T16:08:19.603Z,99.90
2018-03-26T16:10:47.924Z,99.90
2018-03-26T16:13:16.564Z,99.90
2018-03-26T16:15:44.926Z,99.90
2018-03-26T16:18:14.119Z,99.90
2018-03-26T16:20:42.896Z,99.90
2018-03-26T16:23:11.980Z,99.90
2018-03-26T16:25:40.414Z,99.90
2018-03-26T16:28:08.885Z,99.90
2018-03-26T16:30:37.302Z,99.90
2018-03-26T16:33:06.916Z,99.90
2018-03-26T16:35:35.801Z,99.90
2018-03-26T16:38:04.469Z,99.90
2018-03-26T16:40:33.528Z,99.90
2018-03-26T16:43:05.887Z,99.90
2018-03-26T16:45:34.064Z,99.90
2018-03-26T16:48:02.534Z,99.90
2018-03-26T16:50:31.440Z,99.90
2018-03-26T16:53:00.197Z,99.90
2018-03-26T16:55:30.223Z,99.90
2018-03-26T16:57:58.547Z,99.90
2018-03-26T17:00:26.921Z,99.90
2018-03-26T17:02:55.295Z,99.90
2018-03-26T17:05:24.368Z,99.90
2018-03-26T17:07:52.948Z,99.90
2018-03-26T17:10:21.530Z,99.90
2018-03-26T17:12:49.979Z,99.90
2018-03-26T17:15:18.302Z,99.90
2018-03-26T17:17:46.964Z,99.90
2018-03-26T17:23:47.848Z,99.90
2018-03-26T17:26:16.203Z,99.90
2018-03-26T17:28:44.998Z,99.90
2018-03-26T17:31:13.483Z,99.90
2018-03-26T17:33:41.877Z,99.90
2018-03-26T17:36:10.865Z,99.90
2018-03-26T17:38:39.384Z,99.90
2018-03-26T17:41:07.820Z,99.90
2018-03-26T17:43:36.456Z,99.90
2018-03-26T17:46:06.568Z,99.90
2018-03-26T17:48:35.495Z,99.90
2018-03-26T17:51:04.028Z,99.90
2018-03-26T17:53:33.006Z,99.90
2018-03-26T17:56:01.994Z,99.90
2018-03-26T17:58:31.014Z,99.90
2018-03-26T18:00:59.348Z,99.90
2018-03-26T18:03:28.627Z,99.90
2018-03-26T18:05:56.952Z,99.90
2018-03-26T18:08:25.264Z,99.90
2018-03-26T18:10:54.051Z,99.90
2018-03-26T18:13:22.700Z,99.90
2018-03-26T18:15:51.625Z,99.90
2018-03-26T18:18:19.921Z,99.90
2018-03-26T18:20:48.280Z,99.90
2018-03-26T18:23:16.968Z,99.90
2018-03-26T18:25:46.280Z,99.90
2018-03-26T18:28:15.076Z,99.90
2018-03-26T18:30:43.605Z,99.90
2018-03-26T18:33:12.081Z,99.90
2018-03-26T18:35:41.071Z,99.90
2018-03-26T18:38:10.036Z,99.90
2018-03-26T18:40:38.340Z,99.90
2018-03-26T18:43:06.687Z,99.90
2018-03-26T18:45:35.018Z,99.90
2018-03-26T18:48:05.968Z,99.90
2018-03-26T18:50:35.036Z,99.90
2018-03-26T18:53:03.343Z,99.90
2018-03-26T18:55:31.992Z,99.90
2018-03-26T18:58:02.020Z,99.90
2018-03-26T19:00:31.679Z,99.90
2018-03-26T19:03:00.347Z,99.90
2018-03-26T19:05:28.916Z,99.90
2018-03-26T19:07:57.252Z,99.90
2018-03-26T19:10:26.807Z,99.90
2018-03-26T19:12:55.264Z,99.90
2018-03-26T19:15:23.571Z,99.90
2018-03-26T19:17:51.958Z,99.90
2018-03-26T19:20:20.771Z,99.90
2018-03-26T19:22:49.128Z,99.90
2018-03-26T19:25:18.156Z,99.90
2018-03-26T19:27:46.736Z,99.90
2018-03-26T19:30:15.253Z,99.90
2018-03-26T19:32:44.037Z,99.90
2018-03-26T19:35:13.470Z,99.90
2018-03-26T19:37:42.310Z,99.90
2018-03-26T19:40:11.305Z,99.90
2018-03-26T19:42:41.231Z,99.90
2018-03-26T19:45:10.441Z,99.90
2018-03-26T19:47:38.812Z,99.90
2018-03-26T19:50:07.144Z,99.90
2018-03-26T19:52:35.503Z,99.90
2018-03-26T19:55:04.277Z,99.90
2018-03-26T19:57:32.622Z,99.90
2018-03-26T20:00:01.680Z,99.90
2018-03-26T20:02:30.229Z,99.90
2018-03-26T20:04:58.695Z,99.90
2018-03-26T20:07:29.022Z,99.90
2018-03-26T20:09:57.324Z,99.90
2018-03-26T20:12:27.054Z,99.90
2018-03-26T20:14:55.368Z,99.90
2018-03-26T20:17:24.421Z,99.90
2018-03-26T20:19:53.672Z,99.90
2018-03-26T20:22:21.985Z,99.90
2018-03-26T20:24:53.507Z,99.90
2018-03-26T20:27:21.835Z,99.90
2018-03-26T20:29:50.609Z,99.90
2018-03-26T20:32:19.889Z,99.90
2018-03-26T20:34:48.204Z,99.90
2018-03-26T20:37:16.513Z,99.90
2018-03-26T20:39:44.914Z,99.90
2018-03-26T20:42:13.228Z,99.90
2018-03-26T20:44:42.434Z,99.90
2018-03-26T20:47:11.351Z,99.90
2018-03-26T20:49:40.156Z,99.90
2018-03-26T20:52:11.212Z,99.90
2018-03-26T20:54:42.065Z,99.90
2018-03-26T20:57:11.145Z,99.90
2018-03-26T20:59:40.065Z,99.90
2018-03-26T21:02:09.320Z,99.90
2018-03-26T21:04:38.420Z,99.90
2018-03-26T21:07:06.835Z,99.90
2018-03-26T21:09:36.127Z,99.90
2018-03-26T21:12:05.572Z,99.90
2018-03-26T21:14:34.666Z,99.90
2018-03-26T21:17:03.433Z,99.90
2018-03-26T21:19:32.088Z,99.90
2018-03-26T21:22:01.004Z,99.90
2018-03-26T21:24:30.903Z,99.90
2018-03-26T21:27:00.988Z,99.90
2018-03-26T21:29:30.104Z,99.90
2018-03-26T21:31:58.495Z,99.90
2018-03-26T21:34:26.644Z,99.90
2018-03-26T21:36:58.372Z,99.90
2018-03-26T21:39:27.396Z,99.90
2018-03-26T21:41:55.944Z,99.90
2018-03-26T21:44:25.552Z,99.90
2018-03-26T21:46:54.051Z,99.90
2018-03-26T21:49:22.795Z,99.90
2018-03-26T21:51:51.235Z,99.90
2018-03-26T21:54:20.200Z,99.90
2018-03-26T21:56:48.571Z,99.90
2018-03-26T21:59:16.892Z,99.90
2018-03-26T22:01:45.900Z,99.90
2018-03-26T22:04:15.108Z,99.90
2018-03-26T22:06:43.496Z,99.90
2018-03-26T22:09:12.243Z,99.90
2018-03-26T22:11:40.613Z,99.90
2018-03-26T22:14:08.964Z,99.90
2018-03-26T22:16:37.524Z,99.90
2018-03-26T22:19:06.388Z,99.90
2018-03-26T22:21:35.682Z,99.90
2018-03-26T22:24:03.983Z,99.90
2018-03-26T22:26:32.367Z,99.90
2018-03-26T22:29:00.869Z,99.90
2018-03-26T22:31:29.747Z,99.90
2018-03-26T22:33:58.995Z,99.90
2018-03-26T22:36:28.251Z,99.90
2018-03-26T22:38:57.309Z,99.90
2018-03-26T22:41:26.409Z,99.90
2018-03-26T22:43:54.731Z,99.90
2018-03-26T22:46:23.041Z,99.90
2018-03-26T22:48:51.405Z,99.90
2018-03-26T22:51:19.715Z,99.90
2018-03-26T22:53:48.036Z,99.90
2018-03-26T22:56:16.472Z,99.90
2018-03-26T22:58:44.771Z,99.90
2018-03-26T23:01:13.488Z,99.90
2018-03-26T23:03:41.937Z,99.90
2018-03-26T23:06:10.260Z,99.90
2018-03-26T23:08:38.567Z,99.90
2018-03-26T23:11:06.916Z,99.90
2018-03-26T23:13:35.114Z,99.90
2018-03-26T23:16:03.432Z,99.90
2018-03-26T23:18:31.879Z,99.90
2018-03-26T23:21:00.692Z,99.90
2018-03-26T23:23:29.000Z,99.90
2018-03-26T23:25:57.381Z,99.90
2018-03-26T23:28:25.931Z,99.90
2018-03-26T23:30:54.493Z,99.90
2018-03-26T23:33:23.596Z,99.90
2018-03-26T23:35:52.756Z,99.90
2018-03-26T23:38:21.146Z,99.90
2018-03-26T23:40:49.457Z,99.90
2018-03-26T23:43:17.764Z,99.90
2018-03-26T23:45:46.097Z,99.90
2018-03-26T23:48:14.416Z,99.90
2018-03-26T23:50:42.756Z,99.90
2018-03-26T23:53:11.163Z,99.90
2018-03-26T23:55:40.220Z,99.90
2018-03-26T23:58:08.528Z,99.90
